sensor_id;sensor_type;location;lat;lon;timestamp;P1;durP1;ratioP1;P2;durP2;ratioP2
45466;SDS011;31212;49.734;8.490;2023-06-22T00:01:56;12.48;;;5.88;;
45466;SDS011;31212;49.734;8.490;2023-06-22T00:04:22;9.25;;;5.28;;
45466;SDS011;31212;49.734;8.490;2023-06-22T00:06:49;11.25;;;5.10;;
45466;SDS011;31212;49.734;8.490;2023-06-22T00:09:15;8.60;;;5.72;;
45466;SDS011;31212;49.734;8.490;2023-06-22T00:11:42;7.88;;;5.25;;
45466;SDS011;31212;49.734;8.490;2023-06-22T00:14:08;8.55;;;4.90;;
45466;SDS011;31212;49.734;8.490;2023-06-22T00:16:36;9.05;;;5.40;;
45466;SDS011;31212;49.734;8.490;2023-06-22T00:19:03;8.15;;;5.03;;
45466;SDS011;31212;49.734;8.490;2023-06-22T00:21:30;7.60;;;4.70;;
45466;SDS011;31212;49.734;8.490;2023-06-22T00:23:57;8.45;;;5.35;;
45466;SDS011;31212;49.734;8.490;2023-06-22T00:26:23;9.60;;;5.45;;
45466;SDS011;31212;49.734;8.490;2023-06-22T00:28:50;9.57;;;5.95;;
45466;SDS011;31212;49.734;8.490;2023-06-22T00:31:16;9.93;;;5.63;;
45466;SDS011;31212;49.734;8.490;2023-06-22T00:33:44;10.63;;;5.38;;
45466;SDS011;31212;49.734;8.490;2023-06-22T00:36:11;6.78;;;4.32;;
45466;SDS011;31212;49.734;8.490;2023-06-22T00:38:41;7.47;;;5.28;;
45466;SDS011;31212;49.734;8.490;2023-06-22T00:41:07;10.13;;;4.75;;
45466;SDS011;31212;49.734;8.490;2023-06-22T00:43:34;6.45;;;4.70;;
45466;SDS011;31212;49.734;8.490;2023-06-22T00:46:02;8.25;;;4.70;;
45466;SDS011;31212;49.734;8.490;2023-06-22T00:48:28;14.18;;;4.93;;
45466;SDS011;31212;49.734;8.490;2023-06-22T00:50:56;9.52;;;5.32;;
45466;SDS011;31212;49.734;8.490;2023-06-22T00:53:23;10.63;;;5.80;;
45466;SDS011;31212;49.734;8.490;2023-06-22T00:55:49;9.32;;;5.05;;
45466;SDS011;31212;49.734;8.490;2023-06-22T00:58:17;7.75;;;4.97;;
45466;SDS011;31212;49.734;8.490;2023-06-22T01:00:47;7.15;;;4.50;;
45466;SDS011;31212;49.734;8.490;2023-06-22T01:03:14;7.88;;;4.50;;
45466;SDS011;31212;49.734;8.490;2023-06-22T01:05:42;8.82;;;5.32;;
45466;SDS011;31212;49.734;8.490;2023-06-22T01:08:22;8.23;;;5.05;;
45466;SDS011;31212;49.734;8.490;2023-06-22T01:10:58;9.27;;;5.70;;
45466;SDS011;31212;49.734;8.490;2023-06-22T01:13:32;11.13;;;5.97;;
45466;SDS011;31212;49.734;8.490;2023-06-22T01:16:03;9.50;;;5.55;;
45466;SDS011;31212;49.734;8.490;2023-06-22T01:18:34;12.52;;;6.35;;
45466;SDS011;31212;49.734;8.490;2023-06-22T01:21:02;11.48;;;6.22;;
45466;SDS011;31212;49.734;8.490;2023-06-22T01:23:39;9.48;;;6.25;;
45466;SDS011;31212;49.734;8.490;2023-06-22T01:26:18;11.52;;;6.50;;
45466;SDS011;31212;49.734;8.490;2023-06-22T01:28:49;10.45;;;6.55;;
45466;SDS011;31212;49.734;8.490;2023-06-22T01:31:19;10.98;;;6.40;;
45466;SDS011;31212;49.734;8.490;2023-06-22T01:33:51;10.07;;;7.38;;
45466;SDS011;31212;49.734;8.490;2023-06-22T01:36:21;12.32;;;7.53;;
45466;SDS011;31212;49.734;8.490;2023-06-22T01:38:48;10.85;;;6.38;;
45466;SDS011;31212;49.734;8.490;2023-06-22T01:41:17;11.68;;;6.47;;
45466;SDS011;31212;49.734;8.490;2023-06-22T01:43:46;8.77;;;6.40;;
45466;SDS011;31212;49.734;8.490;2023-06-22T01:46:15;9.85;;;6.25;;
45466;SDS011;31212;49.734;8.490;2023-06-22T01:48:44;11.13;;;7.88;;
45466;SDS011;31212;49.734;8.490;2023-06-22T01:51:12;9.82;;;6.28;;
45466;SDS011;31212;49.734;8.490;2023-06-22T01:53:38;11.45;;;7.25;;
45466;SDS011;31212;49.734;8.490;2023-06-22T01:56:05;13.73;;;7.03;;
45466;SDS011;31212;49.734;8.490;2023-06-22T01:58:33;9.02;;;6.00;;
45466;SDS011;31212;49.734;8.490;2023-06-22T02:01:00;12.65;;;6.75;;
45466;SDS011;31212;49.734;8.490;2023-06-22T02:03:42;9.32;;;6.70;;
45466;SDS011;31212;49.734;8.490;2023-06-22T02:06:14;11.45;;;6.70;;
45466;SDS011;31212;49.734;8.490;2023-06-22T02:08:46;12.52;;;6.25;;
45466;SDS011;31212;49.734;8.490;2023-06-22T02:11:16;10.45;;;6.00;;
45466;SDS011;31212;49.734;8.490;2023-06-22T02:13:45;12.20;;;6.95;;
45466;SDS011;31212;49.734;8.490;2023-06-22T02:16:13;8.82;;;6.05;;
45466;SDS011;31212;49.734;8.490;2023-06-22T02:18:46;9.52;;;6.38;;
45466;SDS011;31212;49.734;8.490;2023-06-22T02:21:16;10.40;;;7.45;;
45466;SDS011;31212;49.734;8.490;2023-06-22T02:23:42;12.27;;;7.07;;
45466;SDS011;31212;49.734;8.490;2023-06-22T02:26:09;9.00;;;6.30;;
45466;SDS011;31212;49.734;8.490;2023-06-22T02:28:36;11.35;;;7.40;;
45466;SDS011;31212;49.734;8.490;2023-06-22T02:31:02;11.23;;;7.13;;
45466;SDS011;31212;49.734;8.490;2023-06-22T02:33:29;9.15;;;6.57;;
45466;SDS011;31212;49.734;8.490;2023-06-22T02:35:56;11.00;;;7.05;;
45466;SDS011;31212;49.734;8.490;2023-06-22T02:38:23;15.32;;;7.70;;
45466;SDS011;31212;49.734;8.490;2023-06-22T02:40:51;12.98;;;7.95;;
45466;SDS011;31212;49.734;8.490;2023-06-22T02:43:17;14.63;;;8.35;;
45466;SDS011;31212;49.734;8.490;2023-06-22T02:45:44;13.23;;;8.20;;
45466;SDS011;31212;49.734;8.490;2023-06-22T02:48:10;16.55;;;8.20;;
45466;SDS011;31212;49.734;8.490;2023-06-22T02:50:37;12.27;;;6.93;;
45466;SDS011;31212;49.734;8.490;2023-06-22T02:53:06;13.35;;;8.23;;
45466;SDS011;31212;49.734;8.490;2023-06-22T02:55:36;15.27;;;9.98;;
45466;SDS011;31212;49.734;8.490;2023-06-22T02:58:04;14.98;;;8.57;;
45466;SDS011;31212;49.734;8.490;2023-06-22T03:00:34;16.90;;;8.35;;
45466;SDS011;31212;49.734;8.490;2023-06-22T03:03:00;13.65;;;7.60;;
45466;SDS011;31212;49.734;8.490;2023-06-22T03:05:27;11.65;;;7.10;;
45466;SDS011;31212;49.734;8.490;2023-06-22T03:07:56;14.27;;;8.25;;
45466;SDS011;31212;49.734;8.490;2023-06-22T03:10:24;11.25;;;7.68;;
45466;SDS011;31212;49.734;8.490;2023-06-22T03:12:51;17.65;;;8.18;;
45466;SDS011;31212;49.734;8.490;2023-06-22T03:15:17;12.05;;;8.40;;
45466;SDS011;31212;49.734;8.490;2023-06-22T03:17:45;16.98;;;10.20;;
45466;SDS011;31212;49.734;8.490;2023-06-22T03:20:12;13.90;;;8.52;;
45466;SDS011;31212;49.734;8.490;2023-06-22T03:22:40;12.60;;;8.27;;
45466;SDS011;31212;49.734;8.490;2023-06-22T03:25:09;14.68;;;9.85;;
45466;SDS011;31212;49.734;8.490;2023-06-22T03:27:40;20.10;;;9.25;;
45466;SDS011;31212;49.734;8.490;2023-06-22T03:30:09;15.50;;;8.30;;
45466;SDS011;31212;49.734;8.490;2023-06-22T03:32:37;16.70;;;8.57;;
45466;SDS011;31212;49.734;8.490;2023-06-22T03:35:06;13.35;;;8.93;;
45466;SDS011;31212;49.734;8.490;2023-06-22T03:37:35;15.30;;;8.05;;
45466;SDS011;31212;49.734;8.490;2023-06-22T03:40:02;15.27;;;8.32;;
45466;SDS011;31212;49.734;8.490;2023-06-22T03:42:30;13.90;;;8.13;;
45466;SDS011;31212;49.734;8.490;2023-06-22T03:44:58;12.10;;;8.38;;
45466;SDS011;31212;49.734;8.490;2023-06-22T03:47:26;14.57;;;8.60;;
45466;SDS011;31212;49.734;8.490;2023-06-22T03:49:52;12.68;;;7.60;;
45466;SDS011;31212;49.734;8.490;2023-06-22T03:52:20;13.43;;;9.23;;
45466;SDS011;31212;49.734;8.490;2023-06-22T03:54:46;12.50;;;8.77;;
45466;SDS011;31212;49.734;8.490;2023-06-22T03:57:13;15.57;;;9.18;;
45466;SDS011;31212;49.734;8.490;2023-06-22T03:59:39;14.00;;;8.77;;
45466;SDS011;31212;49.734;8.490;2023-06-22T04:02:07;14.80;;;8.48;;
45466;SDS011;31212;49.734;8.490;2023-06-22T04:04:34;10.75;;;7.60;;
45466;SDS011;31212;49.734;8.490;2023-06-22T04:07:00;12.15;;;7.45;;
45466;SDS011;31212;49.734;8.490;2023-06-22T04:09:27;10.32;;;7.55;;
45466;SDS011;31212;49.734;8.490;2023-06-22T04:11:53;14.48;;;7.93;;
45466;SDS011;31212;49.734;8.490;2023-06-22T04:14:20;12.73;;;8.50;;
45466;SDS011;31212;49.734;8.490;2023-06-22T04:16:46;15.13;;;7.85;;
45466;SDS011;31212;49.734;8.490;2023-06-22T04:19:14;12.05;;;8.35;;
45466;SDS011;31212;49.734;8.490;2023-06-22T04:21:42;12.55;;;6.97;;
45466;SDS011;31212;49.734;8.490;2023-06-22T04:24:10;9.98;;;6.90;;
45466;SDS011;31212;49.734;8.490;2023-06-22T04:26:37;10.45;;;7.03;;
45466;SDS011;31212;49.734;8.490;2023-06-22T04:29:06;11.75;;;8.40;;
45466;SDS011;31212;49.734;8.490;2023-06-22T04:31:34;12.73;;;7.55;;
45466;SDS011;31212;49.734;8.490;2023-06-22T04:34:01;11.93;;;8.32;;
45466;SDS011;31212;49.734;8.490;2023-06-22T04:36:33;12.40;;;7.30;;
45466;SDS011;31212;49.734;8.490;2023-06-22T04:39:03;13.60;;;8.80;;
45466;SDS011;31212;49.734;8.490;2023-06-22T04:41:30;10.45;;;7.18;;
45466;SDS011;31212;49.734;8.490;2023-06-22T04:44:06;20.25;;;8.73;;
45466;SDS011;31212;49.734;8.490;2023-06-22T04:46:33;13.45;;;7.10;;
45466;SDS011;31212;49.734;8.490;2023-06-22T04:49:03;17.38;;;8.15;;
45466;SDS011;31212;49.734;8.490;2023-06-22T04:51:32;12.55;;;8.15;;
45466;SDS011;31212;49.734;8.490;2023-06-22T04:53:59;12.18;;;7.80;;
45466;SDS011;31212;49.734;8.490;2023-06-22T04:56:26;9.48;;;6.72;;
45466;SDS011;31212;49.734;8.490;2023-06-22T04:58:53;11.95;;;7.35;;
45466;SDS011;31212;49.734;8.490;2023-06-22T05:01:22;11.77;;;7.68;;
45466;SDS011;31212;49.734;8.490;2023-06-22T05:03:48;16.90;;;7.20;;
45466;SDS011;31212;49.734;8.490;2023-06-22T05:06:15;10.15;;;7.45;;
45466;SDS011;31212;49.734;8.490;2023-06-22T05:08:44;11.82;;;6.95;;
45466;SDS011;31212;49.734;8.490;2023-06-22T05:11:10;13.30;;;7.65;;
45466;SDS011;31212;49.734;8.490;2023-06-22T05:13:37;9.52;;;7.15;;
45466;SDS011;31212;49.734;8.490;2023-06-22T05:16:03;11.75;;;7.57;;
45466;SDS011;31212;49.734;8.490;2023-06-22T05:18:31;14.95;;;7.85;;
45466;SDS011;31212;49.734;8.490;2023-06-22T05:20:57;17.92;;;7.75;;
45466;SDS011;31212;49.734;8.490;2023-06-22T05:23:24;9.10;;;6.43;;
45466;SDS011;31212;49.734;8.490;2023-06-22T05:25:52;11.18;;;6.97;;
45466;SDS011;31212;49.734;8.490;2023-06-22T05:28:20;11.75;;;7.45;;
45466;SDS011;31212;49.734;8.490;2023-06-22T05:30:48;11.50;;;6.88;;
45466;SDS011;31212;49.734;8.490;2023-06-22T05:33:14;13.00;;;7.40;;
45466;SDS011;31212;49.734;8.490;2023-06-22T05:35:41;12.25;;;7.30;;
45466;SDS011;31212;49.734;8.490;2023-06-22T05:38:07;14.50;;;6.75;;
45466;SDS011;31212;49.734;8.490;2023-06-22T05:40:34;13.07;;;6.40;;
45466;SDS011;31212;49.734;8.490;2023-06-22T05:43:01;8.18;;;5.95;;
45466;SDS011;31212;49.734;8.490;2023-06-22T05:45:28;10.57;;;6.63;;
45466;SDS011;31212;49.734;8.490;2023-06-22T05:47:55;9.90;;;6.00;;
45466;SDS011;31212;49.734;8.490;2023-06-22T05:50:21;8.15;;;6.03;;
45466;SDS011;31212;49.734;8.490;2023-06-22T05:52:47;14.32;;;7.82;;
45466;SDS011;31212;49.734;8.490;2023-06-22T05:55:14;10.02;;;6.80;;
45466;SDS011;31212;49.734;8.490;2023-06-22T05:57:43;11.95;;;6.55;;
45466;SDS011;31212;49.734;8.490;2023-06-22T06:00:12;9.70;;;6.40;;
45466;SDS011;31212;49.734;8.490;2023-06-22T06:02:39;13.30;;;6.97;;
45466;SDS011;31212;49.734;8.490;2023-06-22T06:05:08;10.25;;;6.05;;
45466;SDS011;31212;49.734;8.490;2023-06-22T06:07:36;9.93;;;6.75;;
45466;SDS011;31212;49.734;8.490;2023-06-22T06:10:02;9.38;;;6.72;;
45466;SDS011;31212;49.734;8.490;2023-06-22T06:12:31;11.30;;;5.93;;
45466;SDS011;31212;49.734;8.490;2023-06-22T06:14:57;10.45;;;6.70;;
45466;SDS011;31212;49.734;8.490;2023-06-22T06:17:25;10.50;;;6.68;;
45466;SDS011;31212;49.734;8.490;2023-06-22T06:19:52;14.63;;;6.47;;
45466;SDS011;31212;49.734;8.490;2023-06-22T06:22:18;9.45;;;6.03;;
45466;SDS011;31212;49.734;8.490;2023-06-22T06:24:46;9.88;;;6.32;;
45466;SDS011;31212;49.734;8.490;2023-06-22T06:27:13;11.43;;;5.90;;
45466;SDS011;31212;49.734;8.490;2023-06-22T06:29:40;9.73;;;5.93;;
45466;SDS011;31212;49.734;8.490;2023-06-22T06:32:07;11.45;;;6.05;;
45466;SDS011;31212;49.734;8.490;2023-06-22T06:34:35;8.85;;;6.57;;
45466;SDS011;31212;49.734;8.490;2023-06-22T06:37:02;9.70;;;5.53;;
45466;SDS011;31212;49.734;8.490;2023-06-22T06:39:29;10.15;;;5.97;;
45466;SDS011;31212;49.734;8.490;2023-06-22T06:41:55;10.48;;;6.32;;
45466;SDS011;31212;49.734;8.490;2023-06-22T06:44:22;7.93;;;6.05;;
45466;SDS011;31212;49.734;8.490;2023-06-22T06:46:49;8.48;;;5.45;;
45466;SDS011;31212;49.734;8.490;2023-06-22T06:49:15;8.30;;;5.40;;
45466;SDS011;31212;49.734;8.490;2023-06-22T06:51:43;8.82;;;6.03;;
45466;SDS011;31212;49.734;8.490;2023-06-22T06:54:09;8.85;;;6.07;;
45466;SDS011;31212;49.734;8.490;2023-06-22T06:56:36;6.97;;;4.90;;
45466;SDS011;31212;49.734;8.490;2023-06-22T06:59:02;6.65;;;4.60;;
45466;SDS011;31212;49.734;8.490;2023-06-22T07:01:29;9.05;;;5.15;;
45466;SDS011;31212;49.734;8.490;2023-06-22T07:03:58;8.80;;;5.65;;
45466;SDS011;31212;49.734;8.490;2023-06-22T07:06:25;7.28;;;5.55;;
45466;SDS011;31212;49.734;8.490;2023-06-22T07:08:55;8.32;;;6.18;;
45466;SDS011;31212;49.734;8.490;2023-06-22T07:11:22;6.57;;;4.35;;
45466;SDS011;31212;49.734;8.490;2023-06-22T07:13:48;10.77;;;5.82;;
45466;SDS011;31212;49.734;8.490;2023-06-22T07:16:15;7.32;;;4.72;;
45466;SDS011;31212;49.734;8.490;2023-06-22T07:18:41;8.43;;;4.82;;
45466;SDS011;31212;49.734;8.490;2023-06-22T07:21:08;9.10;;;5.63;;
45466;SDS011;31212;49.734;8.490;2023-06-22T07:23:34;7.03;;;4.65;;
45466;SDS011;31212;49.734;8.490;2023-06-22T07:26:02;6.18;;;4.57;;
45466;SDS011;31212;49.734;8.490;2023-06-22T07:28:31;8.32;;;4.97;;
45466;SDS011;31212;49.734;8.490;2023-06-22T07:31:02;7.63;;;4.93;;
45466;SDS011;31212;49.734;8.490;2023-06-22T07:33:29;7.95;;;4.60;;
45466;SDS011;31212;49.734;8.490;2023-06-22T07:35:55;8.60;;;4.18;;
45466;SDS011;31212;49.734;8.490;2023-06-22T07:38:22;10.27;;;5.18;;
45466;SDS011;31212;49.734;8.490;2023-06-22T07:40:48;6.35;;;4.38;;
45466;SDS011;31212;49.734;8.490;2023-06-22T07:43:17;5.20;;;4.03;;
45466;SDS011;31212;49.734;8.490;2023-06-22T07:45:47;6.63;;;4.47;;
45466;SDS011;31212;49.734;8.490;2023-06-22T07:48:17;7.28;;;4.95;;
45466;SDS011;31212;49.734;8.490;2023-06-22T07:50:43;7.50;;;4.30;;
45466;SDS011;31212;49.734;8.490;2023-06-22T07:53:10;6.10;;;4.32;;
45466;SDS011;31212;49.734;8.490;2023-06-22T07:55:36;5.25;;;4.35;;
45466;SDS011;31212;49.734;8.490;2023-06-22T07:58:03;7.32;;;4.68;;
45466;SDS011;31212;49.734;8.490;2023-06-22T08:00:31;6.38;;;4.72;;
45466;SDS011;31212;49.734;8.490;2023-06-22T08:02:58;6.28;;;4.78;;
45466;SDS011;31212;49.734;8.490;2023-06-22T08:05:25;10.95;;;5.38;;
45466;SDS011;31212;49.734;8.490;2023-06-22T08:07:53;6.70;;;4.50;;
45466;SDS011;31212;49.734;8.490;2023-06-22T08:10:20;6.32;;;4.78;;
45466;SDS011;31212;49.734;8.490;2023-06-22T08:12:46;6.80;;;4.82;;
45466;SDS011;31212;49.734;8.490;2023-06-22T08:15:13;6.70;;;4.45;;
45466;SDS011;31212;49.734;8.490;2023-06-22T08:17:41;8.57;;;5.35;;
45466;SDS011;31212;49.734;8.490;2023-06-22T08:20:07;7.07;;;4.18;;
45466;SDS011;31212;49.734;8.490;2023-06-22T08:22:36;8.02;;;4.72;;
45466;SDS011;31212;49.734;8.490;2023-06-22T08:25:04;7.20;;;4.57;;
45466;SDS011;31212;49.734;8.490;2023-06-22T08:27:31;7.32;;;4.45;;
45466;SDS011;31212;49.734;8.490;2023-06-22T08:29:58;4.90;;;4.03;;
45466;SDS011;31212;49.734;8.490;2023-06-22T08:32:25;7.72;;;4.88;;
45466;SDS011;31212;49.734;8.490;2023-06-22T08:34:53;7.65;;;4.57;;
45466;SDS011;31212;49.734;8.490;2023-06-22T08:37:20;10.73;;;4.95;;
45466;SDS011;31212;49.734;8.490;2023-06-22T08:39:55;7.35;;;4.95;;
45466;SDS011;31212;49.734;8.490;2023-06-22T08:42:22;8.68;;;5.40;;
45466;SDS011;31212;49.734;8.490;2023-06-22T08:44:49;5.03;;;4.22;;
45466;SDS011;31212;49.734;8.490;2023-06-22T08:47:16;6.63;;;4.25;;
45466;SDS011;31212;49.734;8.490;2023-06-22T08:49:43;6.00;;;4.22;;
45466;SDS011;31212;49.734;8.490;2023-06-22T08:52:10;7.53;;;4.40;;
45466;SDS011;31212;49.734;8.490;2023-06-22T08:54:37;5.53;;;4.03;;
45466;SDS011;31212;49.734;8.490;2023-06-22T08:57:04;6.85;;;4.22;;
45466;SDS011;31212;49.734;8.490;2023-06-22T08:59:30;7.75;;;4.88;;
45466;SDS011;31212;49.734;8.490;2023-06-22T09:01:57;5.82;;;4.20;;
45466;SDS011;31212;49.734;8.490;2023-06-22T09:04:23;5.05;;;4.18;;
45466;SDS011;31212;49.734;8.490;2023-06-22T09:06:50;9.65;;;4.32;;
45466;SDS011;31212;49.734;8.490;2023-06-22T09:09:18;8.02;;;4.45;;
45466;SDS011;31212;49.734;8.490;2023-06-22T09:11:45;7.10;;;5.43;;
45466;SDS011;31212;49.734;8.490;2023-06-22T09:14:12;8.30;;;4.72;;
45466;SDS011;31212;49.734;8.490;2023-06-22T09:16:38;6.20;;;5.10;;
45466;SDS011;31212;49.734;8.490;2023-06-22T09:19:05;6.47;;;4.80;;
45466;SDS011;31212;49.734;8.490;2023-06-22T09:21:31;7.28;;;5.45;;
45466;SDS011;31212;49.734;8.490;2023-06-22T09:23:58;6.32;;;4.63;;
45466;SDS011;31212;49.734;8.490;2023-06-22T09:26:25;8.02;;;4.88;;
45466;SDS011;31212;49.734;8.490;2023-06-22T09:28:52;6.00;;;3.90;;
45466;SDS011;31212;49.734;8.490;2023-06-22T09:31:18;13.48;;;4.60;;
45466;SDS011;31212;49.734;8.490;2023-06-22T09:36:16;5.68;;;4.30;;
45466;SDS011;31212;49.734;8.490;2023-06-22T09:38:43;6.43;;;4.55;;
45466;SDS011;31212;49.734;8.490;2023-06-22T09:41:09;5.30;;;4.45;;
45466;SDS011;31212;49.734;8.490;2023-06-22T09:43:37;7.25;;;3.90;;
45466;SDS011;31212;49.734;8.490;2023-06-22T09:46:03;5.13;;;3.92;;
45466;SDS011;31212;49.734;8.490;2023-06-22T09:48:30;5.38;;;3.70;;
45466;SDS011;31212;49.734;8.490;2023-06-22T09:50:57;8.52;;;4.00;;
45466;SDS011;31212;49.734;8.490;2023-06-22T09:53:23;7.32;;;3.83;;
45466;SDS011;31212;49.734;8.490;2023-06-22T09:55:50;6.57;;;4.82;;
45466;SDS011;31212;49.734;8.490;2023-06-22T09:58:16;6.43;;;4.32;;
45466;SDS011;31212;49.734;8.490;2023-06-22T10:00:44;5.95;;;4.05;;
45466;SDS011;31212;49.734;8.490;2023-06-22T10:03:10;5.72;;;3.92;;
45466;SDS011;31212;49.734;8.490;2023-06-22T10:05:37;6.22;;;4.10;;
45466;SDS011;31212;49.734;8.490;2023-06-22T10:08:03;8.40;;;4.18;;
45466;SDS011;31212;49.734;8.490;2023-06-22T10:10:30;5.10;;;3.50;;
45466;SDS011;31212;49.734;8.490;2023-06-22T10:12:57;4.32;;;3.60;;
45466;SDS011;31212;49.734;8.490;2023-06-22T10:15:28;5.20;;;3.92;;
45466;SDS011;31212;49.734;8.490;2023-06-22T10:17:56;6.95;;;3.90;;
45466;SDS011;31212;49.734;8.490;2023-06-22T10:20:23;4.30;;;3.17;;
45466;SDS011;31212;49.734;8.490;2023-06-22T10:22:51;7.10;;;3.97;;
45466;SDS011;31212;49.734;8.490;2023-06-22T10:25:17;7.43;;;3.92;;
45466;SDS011;31212;49.734;8.490;2023-06-22T10:27:44;6.05;;;3.85;;
45466;SDS011;31212;49.734;8.490;2023-06-22T10:30:11;4.55;;;3.58;;
45466;SDS011;31212;49.734;8.490;2023-06-22T10:32:38;5.43;;;3.95;;
45466;SDS011;31212;49.734;8.490;2023-06-22T10:35:08;5.00;;;2.97;;
45466;SDS011;31212;49.734;8.490;2023-06-22T10:37:35;5.35;;;3.97;;
45466;SDS011;31212;49.734;8.490;2023-06-22T10:40:02;7.28;;;3.75;;
45466;SDS011;31212;49.734;8.490;2023-06-22T10:42:30;8.25;;;3.78;;
45466;SDS011;31212;49.734;8.490;2023-06-22T10:44:56;7.70;;;3.97;;
45466;SDS011;31212;49.734;8.490;2023-06-22T10:47:23;7.97;;;4.38;;
45466;SDS011;31212;49.734;8.490;2023-06-22T10:49:49;5.22;;;4.00;;
45466;SDS011;31212;49.734;8.490;2023-06-22T10:52:17;12.65;;;3.88;;
45466;SDS011;31212;49.734;8.490;2023-06-22T10:54:43;5.15;;;4.05;;
45466;SDS011;31212;49.734;8.490;2023-06-22T10:57:10;4.60;;;3.13;;
45466;SDS011;31212;49.734;8.490;2023-06-22T10:59:36;5.35;;;3.38;;
45466;SDS011;31212;49.734;8.490;2023-06-22T11:02:03;6.28;;;3.50;;
45466;SDS011;31212;49.734;8.490;2023-06-22T11:04:29;6.35;;;3.53;;
45466;SDS011;31212;49.734;8.490;2023-06-22T11:06:56;7.72;;;3.80;;
45466;SDS011;31212;49.734;8.490;2023-06-22T11:09:24;6.80;;;4.32;;
45466;SDS011;31212;49.734;8.490;2023-06-22T11:11:51;7.15;;;4.38;;
45466;SDS011;31212;49.734;8.490;2023-06-22T11:14:19;4.93;;;3.42;;
45466;SDS011;31212;49.734;8.490;2023-06-22T11:16:45;9.38;;;4.10;;
45466;SDS011;31212;49.734;8.490;2023-06-22T11:19:12;6.05;;;3.53;;
45466;SDS011;31212;49.734;8.490;2023-06-22T11:21:39;7.28;;;4.32;;
45466;SDS011;31212;49.734;8.490;2023-06-22T11:24:05;6.03;;;3.40;;
45466;SDS011;31212;49.734;8.490;2023-06-22T11:26:33;7.22;;;4.28;;
45466;SDS011;31212;49.734;8.490;2023-06-22T11:29:00;5.72;;;3.72;;
45466;SDS011;31212;49.734;8.490;2023-06-22T11:31:30;7.20;;;4.32;;
45466;SDS011;31212;49.734;8.490;2023-06-22T11:33:59;6.78;;;3.92;;
45466;SDS011;31212;49.734;8.490;2023-06-22T11:36:26;8.15;;;4.00;;
45466;SDS011;31212;49.734;8.490;2023-06-22T11:38:54;5.78;;;3.75;;
45466;SDS011;31212;49.734;8.490;2023-06-22T11:41:21;7.60;;;3.85;;
45466;SDS011;31212;49.734;8.490;2023-06-22T11:43:49;6.75;;;3.47;;
45466;SDS011;31212;49.734;8.490;2023-06-22T11:46:18;5.70;;;3.17;;
45466;SDS011;31212;49.734;8.490;2023-06-22T11:48:45;10.10;;;3.70;;
45466;SDS011;31212;49.734;8.490;2023-06-22T11:51:11;9.38;;;3.83;;
45466;SDS011;31212;49.734;8.490;2023-06-22T11:53:38;5.93;;;3.20;;
45466;SDS011;31212;49.734;8.490;2023-06-22T11:56:04;8.10;;;3.05;;
45466;SDS011;31212;49.734;8.490;2023-06-22T11:58:31;7.78;;;3.75;;
45466;SDS011;31212;49.734;8.490;2023-06-22T12:00:58;6.32;;;3.42;;
45466;SDS011;31212;49.734;8.490;2023-06-22T12:03:25;5.70;;;2.92;;
45466;SDS011;31212;49.734;8.490;2023-06-22T12:05:52;11.07;;;3.67;;
45466;SDS011;31212;49.734;8.490;2023-06-22T12:08:18;9.32;;;4.70;;
45466;SDS011;31212;49.734;8.490;2023-06-22T12:10:45;5.80;;;3.10;;
45466;SDS011;31212;49.734;8.490;2023-06-22T12:13:11;7.47;;;3.47;;
45466;SDS011;31212;49.734;8.490;2023-06-22T12:15:38;9.07;;;3.90;;
45466;SDS011;31212;49.734;8.490;2023-06-22T12:18:06;8.32;;;3.65;;
45466;SDS011;31212;49.734;8.490;2023-06-22T12:20:33;7.90;;;3.63;;
45466;SDS011;31212;49.734;8.490;2023-06-22T12:23:00;6.63;;;3.28;;
45466;SDS011;31212;49.734;8.490;2023-06-22T12:25:26;7.88;;;3.40;;
45466;SDS011;31212;49.734;8.490;2023-06-22T12:27:53;8.98;;;3.47;;
45466;SDS011;31212;49.734;8.490;2023-06-22T12:30:20;6.55;;;3.17;;
45466;SDS011;31212;49.734;8.490;2023-06-22T12:32:46;7.15;;;3.33;;
45466;SDS011;31212;49.734;8.490;2023-06-22T12:35:14;6.95;;;3.30;;
45466;SDS011;31212;49.734;8.490;2023-06-22T12:37:41;9.25;;;3.65;;
45466;SDS011;31212;49.734;8.490;2023-06-22T12:40:08;8.27;;;3.70;;
45466;SDS011;31212;49.734;8.490;2023-06-22T12:42:36;5.88;;;3.35;;
45466;SDS011;31212;49.734;8.490;2023-06-22T12:45:03;5.82;;;3.85;;
45466;SDS011;31212;49.734;8.490;2023-06-22T12:47:30;7.72;;;3.55;;
45466;SDS011;31212;49.734;8.490;2023-06-22T12:49:57;9.40;;;3.28;;
45466;SDS011;31212;49.734;8.490;2023-06-22T12:52:24;7.15;;;3.38;;
45466;SDS011;31212;49.734;8.490;2023-06-22T12:54:51;7.28;;;3.45;;
45466;SDS011;31212;49.734;8.490;2023-06-22T12:57:19;8.02;;;3.13;;
45466;SDS011;31212;49.734;8.490;2023-06-22T12:59:45;9.02;;;3.40;;
45466;SDS011;31212;49.734;8.490;2023-06-22T13:02:12;7.30;;;3.22;;
45466;SDS011;31212;49.734;8.490;2023-06-22T13:04:38;8.32;;;3.70;;
45466;SDS011;31212;49.734;8.490;2023-06-22T13:07:05;5.97;;;3.60;;
45466;SDS011;31212;49.734;8.490;2023-06-22T13:09:33;5.38;;;3.33;;
45466;SDS011;31212;49.734;8.490;2023-06-22T13:12:00;6.72;;;3.22;;
45466;SDS011;31212;49.734;8.490;2023-06-22T13:14:26;7.55;;;3.97;;
45466;SDS011;31212;49.734;8.490;2023-06-22T13:16:53;9.80;;;3.10;;
45466;SDS011;31212;49.734;8.490;2023-06-22T13:19:19;9.93;;;3.47;;
45466;SDS011;31212;49.734;8.490;2023-06-22T13:21:45;8.60;;;3.95;;
45466;SDS011;31212;49.734;8.490;2023-06-22T13:24:12;9.48;;;3.33;;
45466;SDS011;31212;49.734;8.490;2023-06-22T13:26:40;7.40;;;2.78;;
45466;SDS011;31212;49.734;8.490;2023-06-22T13:29:06;7.40;;;3.70;;
45466;SDS011;31212;49.734;8.490;2023-06-22T13:31:33;6.53;;;3.50;;
45466;SDS011;31212;49.734;8.490;2023-06-22T13:33:59;7.15;;;3.88;;
45466;SDS011;31212;49.734;8.490;2023-06-22T13:36:26;14.23;;;4.32;;
45466;SDS011;31212;49.734;8.490;2023-06-22T13:38:55;6.93;;;3.83;;
45466;SDS011;31212;49.734;8.490;2023-06-22T13:41:22;3.97;;;3.00;;
45466;SDS011;31212;49.734;8.490;2023-06-22T13:43:50;4.53;;;3.13;;
45466;SDS011;31212;49.734;8.490;2023-06-22T13:46:16;5.18;;;3.17;;
45466;SDS011;31212;49.734;8.490;2023-06-22T13:48:43;4.50;;;3.00;;
45466;SDS011;31212;49.734;8.490;2023-06-22T13:51:09;4.65;;;3.20;;
45466;SDS011;31212;49.734;8.490;2023-06-22T13:53:36;4.53;;;3.15;;
45466;SDS011;31212;49.734;8.490;2023-06-22T13:56:03;6.90;;;3.30;;
45466;SDS011;31212;49.734;8.490;2023-06-22T13:58:29;13.52;;;3.50;;
45466;SDS011;31212;49.734;8.490;2023-06-22T14:00:57;5.25;;;3.58;;
45466;SDS011;31212;49.734;8.490;2023-06-22T14:03:24;6.45;;;3.88;;
45466;SDS011;31212;49.734;8.490;2023-06-22T14:05:50;7.15;;;3.67;;
45466;SDS011;31212;49.734;8.490;2023-06-22T14:08:19;9.30;;;3.58;;
45466;SDS011;31212;49.734;8.490;2023-06-22T14:10:48;10.80;;;3.10;;
45466;SDS011;31212;49.734;8.490;2023-06-22T14:13:15;7.05;;;3.05;;
45466;SDS011;31212;49.734;8.490;2023-06-22T14:15:41;7.32;;;4.57;;
45466;SDS011;31212;49.734;8.490;2023-06-22T14:18:09;6.78;;;3.38;;
45466;SDS011;31212;49.734;8.490;2023-06-22T14:20:36;8.02;;;3.75;;
45466;SDS011;31212;49.734;8.490;2023-06-22T14:23:02;8.95;;;3.42;;
45466;SDS011;31212;49.734;8.490;2023-06-22T14:25:28;11.50;;;4.85;;
45466;SDS011;31212;49.734;8.490;2023-06-22T14:27:55;11.48;;;3.72;;
45466;SDS011;31212;49.734;8.490;2023-06-22T14:30:21;9.35;;;4.13;;
45466;SDS011;31212;49.734;8.490;2023-06-22T14:32:48;9.88;;;3.90;;
45466;SDS011;31212;49.734;8.490;2023-06-22T14:35:16;11.45;;;3.53;;
45466;SDS011;31212;49.734;8.490;2023-06-22T14:37:42;7.65;;;4.07;;
45466;SDS011;31212;49.734;8.490;2023-06-22T14:40:09;10.25;;;3.45;;
45466;SDS011;31212;49.734;8.490;2023-06-22T14:42:36;9.15;;;3.33;;
45466;SDS011;31212;49.734;8.490;2023-06-22T14:45:03;6.28;;;2.80;;
45466;SDS011;31212;49.734;8.490;2023-06-22T14:47:30;7.85;;;3.55;;